Time;durP1;ratioP1;P1;durP2;ratioP2;P2;SDS_P1;SDS_P2;PMS_P1;PMS_P2;Temp;Humidity;BMP_temperature;BMP_pressure;BME280_temperature;BME280_humidity;BME280_pressure;Samples;Min_cycle;Max_cycle;Signal;HPM_P1;HPM_P2
2021/06/21 00:00:19;;;;;;;10.82;2.40;;;;;;;17.83;90.80;98120.09;4970639;28;20051;-80
2021/06/21 00:02:46;;;;;;;12.48;1.75;;;;;;;17.76;90.99;98119.47;4973957;28;20046;-80
2021/06/21 00:05:15;;;;;;;9.18;1.48;;;;;;;17.72;90.03;98132.91;4974721;28;20226;-80
2021/06/21 00:07:44;;;;;;;8.32;1.63;;;;;;;17.61;89.52;98120.09;4974925;28;20055;-80
2021/06/21 00:10:14;;;;;;;5.53;1.65;;;;;;;17.55;91.64;98132.94;4966001;28;20054;-80
2021/06/21 00:12:44;;;;;;;6.45;1.40;;;;;;;17.65;90.27;98132.25;4975393;28;20051;-80
2021/06/21 00:15:12;;;;;;;7.32;1.40;;;;;;;17.76;90.27;98138.69;4973318;28;20499;-80
2021/06/21 00:17:41;;;;;;;10.07;1.80;;;;;;;17.62;91.28;98130.84;4974617;28;20137;-80
2021/06/21 00:20:11;;;;;;;8.57;1.60;;;;;;;17.82;90.20;98126.66;4974238;28;20055;-80
2021/06/21 00:22:38;;;;;;;12.30;1.88;;;;;;;17.77;90.21;98118.38;4974571;28;20058;-80
2021/06/21 00:25:07;;;;;;;4.38;1.40;;;;;;;17.72;90.99;98121.06;4974287;28;20064;-80
2021/06/21 00:27:35;;;;;;;10.45;1.95;;;;;;;17.72;90.17;98112.81;4969972;28;20057;-80
2021/06/21 00:30:02;;;;;;;7.38;1.80;;;;;;;17.86;89.73;98106.66;4974254;28;20047;-80
2021/06/21 00:32:28;;;;;;;10.13;1.80;;;;;;;17.71;90.71;98113.91;4974160;28;20069;-80
2021/06/21 00:34:55;;;;;;;7.03;1.08;;;;;;;17.73;90.96;98130.97;4972785;28;20039;-80
2021/06/21 00:37:23;;;;;;;10.20;1.20;;;;;;;17.77;91.34;98127.44;4974493;28;20051;-80
2021/06/21 00:39:49;;;;;;;19.05;1.92;;;;;;;17.67;92.46;98127.31;4974434;28;20338;-80
2021/06/21 00:42:19;;;;;;;7.15;1.15;;;;;;;17.64;90.64;98114.94;4967878;28;20455;-80
2021/06/21 00:44:49;;;;;;;4.47;1.17;;;;;;;17.77;91.05;98121.13;4971658;28;20045;-80
2021/06/21 00:53:55;;;;;;;8.73;1.27;;;;;;;17.61;90.89;98112.69;4966775;28;20467;-79
2021/06/21 00:59:40;;;;;;;10.50;1.50;;;;;;;17.76;91.79;98141.44;4973425;28;20486;-79
2021/06/21 01:02:07;;;;;;;12.95;1.83;;;;;;;17.75;91.20;98139.78;4974161;28;20051;-78
2021/06/21 01:04:54;;;;;;;15.18;1.63;;;;;;;17.71;92.46;98141.41;4973675;28;20061;-79
2021/06/21 01:07:22;;;;;;;11.10;1.63;;;;;;;17.69;91.12;98136.97;4973853;28;20053;-79
2021/06/21 01:09:50;;;;;;;7.47;2.08;;;;;;;17.60;91.53;98141.28;4973862;28;20042;-79
2021/06/21 01:12:35;;;;;;;13.93;1.58;;;;;;;17.58;91.27;98126.13;4973094;28;20447;-79
2021/06/21 01:15:07;;;;;;;12.95;1.80;;;;;;;17.65;91.54;98148.75;4972936;28;20443;-79
2021/06/21 01:17:37;;;;;;;13.38;1.55;;;;;;;17.63;92.42;98146.25;4973639;28;20058;-79
2021/06/21 01:20:15;;;;;;;9.07;1.80;;;;;;;17.50;92.76;98136.47;4973305;28;20585;-79
2021/06/21 01:23:12;;;;;;;10.38;2.03;;;;;;;17.54;92.46;98117.56;4972733;28;20537;-79
2021/06/21 01:25:42;;;;;;;5.22;1.33;;;;;;;17.55;92.11;98110.13;4972933;28;20055;-79
2021/06/21 01:28:21;;;;;;;7.63;1.40;;;;;;;17.61;92.09;98115.44;4973484;28;20101;-79
2021/06/21 01:31:07;;;;;;;6.65;1.20;;;;;;;17.72;91.03;98118.31;4972874;28;20135;-79
2021/06/21 01:33:38;;;;;;;11.77;2.20;;;;;;;17.75;90.72;98115.88;4973574;28;20590;-79
2021/06/21 01:36:07;;;;;;;11.25;1.52;;;;;;;17.83;89.51;98120.09;4973180;28;20051;-79
2021/06/21 01:38:38;;;;;;;12.87;1.87;;;;;;;17.82;89.32;98115.69;4973536;28;20062;-79
2021/06/21 01:41:09;;;;;;;14.02;1.60;;;;;;;17.67;89.81;98116.31;4972712;28;20294;-79
2021/06/21 01:43:41;;;;;;;8.85;1.50;;;;;;;17.54;90.55;98119.47;4973494;28;20051;-79
2021/06/21 01:46:11;;;;;;;11.27;1.40;;;;;;;17.66;91.90;98139.41;4964740;28;20047;-79
2021/06/21 01:48:44;;;;;;;8.23;1.35;;;;;;;17.57;93.85;98132.69;4967557;28;20050;-78
2021/06/21 01:51:12;;;;;;;11.48;1.60;;;;;;;17.68;91.74;98124.31;4972895;28;20114;-78
2021/06/21 01:53:40;;;;;;;20.70;2.05;;;;;;;17.66;91.31;98107.25;4973422;28;20077;-79
2021/06/21 01:56:11;;;;;;;11.73;2.58;;;;;;;17.71;91.28;98114.72;4971538;28;20403;-79
2021/06/21 01:58:39;;;;;;;17.77;1.48;;;;;;;17.64;91.89;98114.94;4962631;28;20057;-79
2021/06/21 02:01:17;;;;;;;15.27;1.73;;;;;;;17.56;92.07;98115.38;4972882;28;20053;-79
2021/06/21 02:03:48;;;;;;;6.47;2.25;;;;;;;17.54;91.73;98134.06;4972945;28;20138;-79
2021/06/21 02:06:16;;;;;;;6.90;1.80;;;;;;;17.44;92.86;98131.16;4972777;28;20511;-79
2021/06/21 02:08:46;;;;;;;7.93;1.65;;;;;;;17.43;92.17;98124.00;4972145;28;20051;-79
2021/06/21 02:11:13;;;;;;;6.88;1.60;;;;;;;17.42;92.49;98122.31;4973141;28;20487;-79
2021/06/21 02:13:41;;;;;;;10.00;1.58;;;;;;;17.38;92.48;98116.53;4971686;28;20051;-79
2021/06/21 02:16:09;;;;;;;7.10;2.25;;;;;;;17.37;92.21;98130.53;4972876;28;20050;-79
2021/06/21 02:18:37;;;;;;;10.20;1.70;;;;;;;17.21;92.17;98126.72;4971717;28;20054;-79
2021/06/21 02:21:06;;;;;;;7.85;1.30;;;;;;;17.36;91.66;98148.94;4972980;28;20101;-79
2021/06/21 02:23:34;;;;;;;15.77;2.08;;;;;;;17.30;91.60;98141.69;4972350;28;20042;-79
2021/06/21 02:26:01;;;;;;;5.25;1.40;;;;;;;17.24;91.69;98139.97;4972000;28;20055;-79
2021/06/21 02:28:29;;;;;;;9.73;2.75;;;;;;;17.08;92.04;98138.91;4972626;28;20050;-79
2021/06/21 02:30:58;;;;;;;9.93;2.40;;;;;;;17.15;92.09;98136.81;4972240;28;20069;-78
2021/06/21 02:33:27;;;;;;;6.85;1.40;;;;;;;17.11;92.16;98152.13;4972784;28;20074;-79
2021/06/21 02:35:54;;;;;;;7.80;1.80;;;;;;;17.14;92.14;98159.88;4972079;28;20076;-79
2021/06/21 02:38:39;;;;;;;11.60;1.90;;;;;;;17.09;91.30;98141.41;4972376;28;20130;-79
2021/06/21 02:41:06;;;;;;;8.25;1.40;;;;;;;17.03;91.76;98152.56;4971550;28;20055;-78
2021/06/21 02:43:33;;;;;;;11.80;2.40;;;;;;;17.04;92.05;98149.56;4971931;28;20047;-78
2021/06/21 02:46:01;;;;;;;7.55;1.65;;;;;;;17.13;91.58;98155.44;4971703;28;20053;-79
2021/06/21 02:48:31;;;;;;;19.65;2.28;;;;;;;16.91;92.13;98145.25;4972589;28;20083;-78
2021/06/21 02:50:59;;;;;;;9.30;1.75;;;;;;;16.97;91.68;98140.69;4971933;28;20062;-78
2021/06/21 02:53:46;;;;;;;5.43;1.35;;;;;;;17.12;91.98;98156.56;4971546;28;20376;-79
2021/06/21 02:56:22;;;;;;;12.52;1.60;;;;;;;17.03;92.27;98163.56;4971476;28;20058;-79
2021/06/21 02:58:52;;;;;;;9.20;1.77;;;;;;;16.98;92.66;98151.41;4972297;28;20174;-78
2021/06/21 03:01:22;;;;;;;11.50;1.93;;;;;;;17.08;92.45;98167.19;4971686;28;20133;-79
2021/06/21 03:03:50;;;;;;;;;;;;;;;17.04;92.25;98156.97;4972537;28;20113;-79
2021/06/21 03:06:19;;;;;;;13.30;2.22;;;;;;;17.03;93.51;98138.84;4971612;28;20302;-79
2021/06/21 03:08:51;;;;;;;11.40;2.10;;;;;;;17.04;93.38;98133.09;4971930;28;20050;-78
2021/06/21 03:11:24;;;;;;;8.38;2.08;;;;;;;17.02;93.38;98137.19;4966454;28;20051;-79
2021/06/21 03:13:55;;;;;;;9.90;3.92;;;;;;;17.14;93.19;98154.38;4971592;28;20134;-78
2021/06/21 03:16:23;;;;;;;8.48;1.80;;;;;;;17.16;92.61;98143.97;4971664;28;20086;-79
2021/06/21 03:18:52;;;;;;;9.75;1.70;;;;;;;17.06;92.40;98149.31;4971689;28;20499;-78
2021/06/21 03:21:20;;;;;;;10.60;1.67;;;;;;;16.94;93.01;98141.19;4972032;28;20085;-79
2021/06/21 03:23:52;;;;;;;9.40;1.70;;;;;;;17.03;93.53;98155.31;4971777;28;20142;-79
2021/06/21 03:26:25;;;;;;;9.80;1.50;;;;;;;16.89;93.85;98147.44;4968857;28;20054;-79
2021/06/21 03:28:52;;;;;;;10.00;1.85;;;;;;;16.97;92.76;98138.75;4966812;28;20058;-79
2021/06/21 03:31:20;;;;;;;15.10;1.85;;;;;;;17.13;93.11;98153.56;4972312;28;20131;-79
2021/06/21 03:33:48;;;;;;;22.13;2.78;;;;;;;17.04;93.45;98145.97;4971514;28;20043;-79
2021/06/21 03:36:15;;;;;;;8.73;1.77;;;;;;;17.12;92.05;98142.81;4973675;28;20599;-79
2021/06/21 03:38:42;;;;;;;9.68;2.20;;;;;;;17.30;91.45;98147.19;4975541;28;20053;-79
2021/06/21 03:41:11;;;;;;;11.25;1.85;;;;;;;17.10;92.67;98136.72;4975407;28;20154;-79
2021/06/21 03:43:40;;;;;;;14.30;3.20;;;;;;;17.11;93.84;98157.63;4963640;28;20062;-79
2021/06/21 03:46:09;;;;;;;7.07;2.13;;;;;;;17.05;94.24;98150.41;4969115;28;20054;-79
2021/06/21 03:48:37;;;;;;;6.85;1.48;;;;;;;17.20;92.51;98158.84;4975294;28;20079;-79
2021/06/21 03:51:05;;;;;;;10.82;2.03;;;;;;;17.07;93.08;98142.72;4975432;28;20050;-79
2021/06/21 03:53:32;;;;;;;12.93;1.75;;;;;;;17.25;91.58;98158.94;4975676;28;20043;-79
2021/06/21 03:55:59;;;;;;;15.10;3.35;;;;;;;17.22;92.47;98175.06;4975045;28;20047;-79
2021/06/21 03:58:28;;;;;;;11.88;1.70;;;;;;;17.15;92.12;98167.84;4975521;28;20410;-79
2021/06/21 04:01:19;;;;;;;9.90;2.83;;;;;;;17.25;91.96;98174.56;4964820;28;20046;-79
2021/06/21 04:04:00;;;;;;;10.00;1.70;;;;;;;17.17;93.01;98175.84;4975481;28;20138;-79
2021/06/21 04:06:27;;;;;;;9.90;1.90;;;;;;;17.22;91.31;98166.84;4975665;28;20573;-79
2021/06/21 04:08:54;;;;;;;15.75;2.17;;;;;;;17.32;91.38;98176.06;4974581;28;20105;-79
2021/06/21 04:11:21;;;;;;;9.57;2.22;;;;;;;17.56;90.39;98192.31;4974983;28;20097;-79
2021/06/21 04:13:49;;;;;;;9.13;1.67;;;;;;;17.50;90.48;98180.41;4974208;28;20089;-79
2021/06/21 04:16:15;;;;;;;9.68;1.65;;;;;;;17.59;91.06;98180.81;4968742;28;20051;-78
2021/06/21 04:18:43;;;;;;;14.65;2.15;;;;;;;17.76;nan;98188.19;4975157;28;20055;-78
2021/06/21 04:21:10;;;;;;;9.35;2.72;;;;;;;17.77;88.41;98185.16;4975044;28;20051;-79
2021/06/21 04:23:37;;;;;;;14.88;1.83;;;;;;;17.88;88.91;98175.13;4974892;28;20058;-79
2021/06/21 04:26:03;;;;;;;11.73;2.00;;;;;;;17.83;88.64;98170.41;4975151;28;20550;-77
2021/06/21 04:28:30;;;;;;;4.28;1.42;;;;;;;17.88;88.37;98164.13;4975941;28;20561;-79
2021/06/21 04:30:58;;;;;;;13.43;1.30;;;;;;;17.97;88.00;98161.78;4973326;28;20066;-79
2021/06/21 04:33:25;;;;;;;21.45;2.40;;;;;;;18.04;89.90;98171.50;4974285;28;20053;-79
2021/06/21 04:35:52;;;;;;;10.98;2.00;;;;;;;18.05;89.68;98166.84;4974122;28;20046;-79
2021/06/21 04:38:23;;;;;;;12.80;2.20;;;;;;;18.03;90.43;98164.31;4974341;28;20109;-79
2021/06/21 04:40:50;;;;;;;16.30;2.30;;;;;;;18.06;89.59;98179.50;4974614;28;20411;-79
2021/06/21 04:43:19;;;;;;;15.20;2.22;;;;;;;18.06;88.38;98185.00;4974199;28;20305;-79
2021/06/21 04:45:46;;;;;;;9.50;2.33;;;;;;;18.05;87.97;98191.59;4974285;28;20487;-79
2021/06/21 04:48:14;;;;;;;13.65;1.65;;;;;;;18.06;86.98;98187.75;4973289;28;20491;-78
2021/06/21 04:50:41;;;;;;;8.30;1.77;;;;;;;17.94;87.61;98187.06;4972534;28;20046;-79
2021/06/21 04:53:11;;;;;;;13.55;2.20;;;;;;;17.84;88.44;98179.50;4974349;28;20796;-79
2021/06/21 04:55:38;;;;;;;11.18;2.92;;;;;;;17.98;87.87;98194.53;4974197;28;20081;-78
2021/06/21 04:58:05;;;;;;;12.27;1.90;;;;;;;17.87;87.87;98168.00;4973031;28;20050;-79
2021/06/21 05:00:31;;;;;;;10.57;1.88;;;;;;;17.95;87.98;98183.22;4973240;28;20047;-79
2021/06/21 05:02:59;;;;;;;17.58;2.15;;;;;;;17.78;86.39;98167.59;4973640;28;20042;-79
2021/06/21 05:05:27;;;;;;;9.95;2.60;;;;;;;17.81;87.86;98174.47;4971029;28;20047;-79
2021/06/21 05:07:56;;;;;;;10.23;1.67;;;;;;;17.93;87.90;98171.63;4970178;28;20046;-79
2021/06/21 05:10:26;;;;;;;12.43;2.20;;;;;;;17.83;86.87;98164.91;4974001;28;20077;-79
2021/06/21 05:12:53;;;;;;;7.10;1.70;;;;;;;17.98;87.39;98172.53;4974344;28;20417;-79
2021/06/21 05:15:20;;;;;;;9.45;3.03;;;;;;;18.08;86.93;98187.47;4973112;28;20050;-79
2021/06/21 05:17:47;;;;;;;9.20;2.00;;;;;;;18.47;85.29;98190.09;4974267;28;20125;-79
2021/06/21 05:20:15;;;;;;;10.18;2.20;;;;;;;19.28;81.33;98191.88;4974036;28;20458;-78
2021/06/21 05:22:44;;;;;;;7.75;2.10;;;;;;;20.11;78.12;98201.41;4972544;28;20050;-79
2021/06/21 05:25:12;;;;;;;11.23;1.75;;;;;;;20.59;75.15;98201.25;4973413;28;20121;-79
2021/06/21 05:27:39;;;;;;;7.45;1.83;;;;;;;20.63;73.81;98185.81;4954506;28;20058;-78
2021/06/21 05:30:06;;;;;;;11.82;1.67;;;;;;;20.81;73.86;98182.53;4967688;28;20054;-78
2021/06/21 05:32:33;;;;;;;10.30;1.63;;;;;;;21.37;73.25;98198.22;4973314;28;20050;-78
2021/06/21 05:35:00;;;;;;;11.65;1.85;;;;;;;21.52;71.00;98189.09;4973539;28;20522;-78
2021/06/21 05:37:27;;;;;;;9.20;1.80;;;;;;;21.83;69.51;98196.47;4973313;28;20051;-79
2021/06/21 05:39:55;;;;;;;10.15;1.75;;;;;;;22.21;70.10;98210.72;4963164;28;20058;-78
2021/06/21 05:42:22;;;;;;;12.95;2.35;;;;;;;22.41;67.81;98194.00;4970740;28;20113;-78
2021/06/21 05:44:50;;;;;;;11.65;1.63;;;;;;;22.26;68.41;98194.06;4973239;28;20141;-78
2021/06/21 05:47:16;;;;;;;9.20;1.50;;;;;;;22.53;68.09;98203.91;4973835;28;20189;-78
2021/06/21 05:49:44;;;;;;;4.88;1.42;;;;;;;22.72;65.37;98193.81;4973398;28;20054;-78
2021/06/21 05:52:11;;;;;;;14.30;2.00;;;;;;;22.56;66.97;98197.81;4972111;28;20101;-78
2021/06/21 05:54:38;;;;;;;8.75;1.83;;;;;;;22.59;66.03;98208.31;4973027;28;20053;-78
2021/06/21 05:57:06;;;;;;;15.43;2.42;;;;;;;22.72;65.93;98210.44;4972466;28;20094;-77
2021/06/21 05:59:33;;;;;;;11.18;1.50;;;;;;;22.65;64.23;98220.19;4973106;28;20123;-77
2021/06/21 06:02:00;;;;;;;7.03;1.60;;;;;;;22.66;65.40;98227.38;4972831;28;20046;-77
2021/06/21 06:04:27;;;;;;;4.82;1.63;;;;;;;22.82;64.97;98220.59;4972959;28;20055;-77
2021/06/21 06:06:54;;;;;;;7.82;1.95;;;;;;;22.82;65.44;98208.69;4967221;28;20043;-77
2021/06/21 06:09:20;;;;;;;13.38;1.90;;;;;;;22.91;65.76;98210.59;4964778;28;20117;-77
2021/06/21 06:11:48;;;;;;;9.38;1.73;;;;;;;22.82;65.15;98208.69;4973142;28;20084;-77
2021/06/21 06:14:16;;;;;;;10.75;1.63;;;;;;;22.95;64.72;98196.97;4971753;28;20475;-77
2021/06/21 06:16:44;;;;;;;9.18;1.67;;;;;;;23.15;63.68;98193.22;4973654;28;20101;-77
2021/06/21 06:19:11;;;;;;;8.90;1.55;;;;;;;23.36;63.41;98209.66;4972457;28;20057;-77
2021/06/21 06:21:38;;;;;;;8.25;2.13;;;;;;;23.46;63.44;98198.47;4972425;28;20059;-77
2021/06/21 06:24:06;;;;;;;12.27;1.85;;;;;;;23.43;63.20;98207.38;4972437;28;20113;-77
2021/06/21 06:26:32;;;;;;;10.45;1.60;;;;;;;23.67;62.94;98191.56;4972328;28;20043;-77
2021/06/21 06:28:59;;;;;;;6.55;1.77;;;;;;;23.58;62.77;98192.53;4971773;28;20050;-77
2021/06/21 06:31:28;;;;;;;5.72;1.40;;;;;;;23.95;60.05;98211.28;4972950;28;20053;-77
2021/06/21 06:33:56;;;;;;;8.77;1.60;;;;;;;24.09;61.29;98207.75;4972667;28;20567;-76
2021/06/21 06:36:23;;;;;;;9.35;1.50;;;;;;;24.26;61.31;98233.09;4972613;28;20491;-76
2021/06/21 06:38:50;;;;;;;8.25;1.63;;;;;;;24.28;60.93;98214.16;4970807;28;20098;-76
2021/06/21 06:41:16;;;;;;;7.78;1.27;;;;;;;24.24;60.38;98209.50;4972962;28;20051;-76
2021/06/21 06:43:43;;;;;;;8.70;1.63;;;;;;;24.36;61.26;98196.03;4972531;28;20404;-78
2021/06/21 06:46:10;;;;;;;7.40;1.60;;;;;;;24.19;58.05;98207.63;4972929;28;20060;-76
2021/06/21 06:48:38;;;;;;;11.07;2.65;;;;;;;23.65;59.90;98216.03;4972625;28;20495;-76
2021/06/21 06:51:05;;;;;;;6.88;2.50;;;;;;;23.93;60.92;98210.72;4972356;28;20047;-76
2021/06/21 06:53:39;;;;;;;9.43;1.70;;;;;;;24.28;58.25;98218.91;4972483;28;20043;-76
2021/06/21 06:58:50;;;;;;;11.05;1.52;;;;;;;24.76;57.66;98220.75;4953375;29;20062;-76
2021/06/21 07:01:17;;;;;;;8.23;1.60;;;;;;;24.95;57.48;98213.22;4968957;28;20057;-75
2021/06/21 07:03:45;;;;;;;13.15;2.42;;;;;;;25.36;55.61;98225.66;4972438;28;20109;-76
2021/06/21 07:06:13;;;;;;;7.40;1.33;;;;;;;25.25;56.26;98230.53;4971968;28;20051;-76
2021/06/21 07:08:40;;;;;;;3.83;1.13;;;;;;;25.16;57.15;98229.59;4972469;28;20063;-75
2021/06/21 07:11:06;;;;;;;8.10;1.20;;;;;;;25.16;57.86;98229.59;4973995;28;20047;-76
2021/06/21 07:13:34;;;;;;;8.68;1.75;;;;;;;25.11;56.32;98212.97;4960119;28;20102;-75
2021/06/21 07:16:00;;;;;;;7.18;1.33;;;;;;;25.20;55.05;98220.31;4968119;28;20250;-74
2021/06/21 07:18:27;;;;;;;7.93;1.15;;;;;;;25.77;53.79;98222.09;4976439;28;20463;-75
2021/06/21 07:20:55;;;;;;;7.05;2.38;;;;;;;25.66;54.11;98232.59;4976241;28;20054;-74
2021/06/21 07:23:22;;;;;;;9.25;2.65;;;;;;;25.58;54.89;98223.00;4976090;28;20491;-75
2021/06/21 07:25:49;;;;;;;5.95;1.10;;;;;;;25.78;53.87;98229.31;4975851;28;20109;-75
2021/06/21 07:28:16;;;;;;;7.72;1.25;;;;;;;26.10;53.44;98227.59;4975297;28;20038;-74
2021/06/21 07:30:43;;;;;;;5.20;1.20;;;;;;;25.79;52.35;98217.06;4976066;28;20139;-74
2021/06/21 07:33:10;;;;;;;9.07;1.75;;;;;;;25.12;52.73;98221.00;4976408;28;20054;-74
2021/06/21 07:35:39;;;;;;;6.95;1.38;;;;;;;25.21;53.14;98215.59;4975402;28;20502;-75
2021/06/21 07:38:08;;;;;;;9.63;1.20;;;;;;;25.60;50.37;98214.34;4975979;28;20047;-75
2021/06/21 07:40:35;;;;;;;8.13;1.30;;;;;;;25.79;52.70;98217.06;4975679;28;20059;-74
2021/06/21 07:43:02;;;;;;;3.33;1.40;;;;;;;25.84;53.05;98218.91;4975995;28;20129;-75
2021/06/21 07:45:29;;;;;;;4.57;1.63;;;;;;;26.07;53.05;98215.13;4972864;28;20105;-75
2021/06/21 07:47:58;;;;;;;7.60;1.20;;;;;;;26.09;52.29;98218.44;4956464;28;20047;-75
2021/06/21 07:50:25;;;;;;;4.82;1.17;;;;;;;25.63;52.13;98221.28;4957841;28;20131;-76
2021/06/21 07:52:51;;;;;;;9.57;1.50;;;;;;;25.86;51.05;98208.28;4975871;28;20507;-75
2021/06/21 07:55:20;;;;;;;4.15;1.05;;;;;;;26.04;51.89;98212.13;4975533;28;20059;-75
2021/06/21 07:57:46;;;;;;;8.95;1.50;;;;;;;26.09;52.59;98212.00;4975223;28;20121;-75
2021/06/21 08:00:14;;;;;;;4.95;1.10;;;;;;;25.92;51.76;98215.41;4975813;28;20082;-75
2021/06/21 08:02:41;;;;;;;6.30;1.85;;;;;;;25.90;50.21;98209.34;4975459;28;20055;-75
2021/06/21 08:05:09;;;;;;;9.68;1.30;;;;;;;26.04;51.49;98210.16;4974957;28;20062;-76
2021/06/21 08:07:35;;;;;;;5.50;1.10;;;;;;;26.21;50.91;98217.06;4974967;28;20046;-76
2021/06/21 08:10:02;;;;;;;10.20;1.30;;;;;;;26.48;48.74;98213.41;4975687;28;20062;-76
2021/06/21 08:12:31;;;;;;;4.43;1.30;;;;;;;26.63;52.19;98220.59;4974953;28;20102;-76
2021/06/21 08:14:58;;;;;;;5.28;1.17;;;;;;;26.64;50.47;98220.28;4974712;28;20442;-77
2021/06/21 08:17:25;;;;;;;4.25;1.15;;;;;;;26.84;48.85;98204.25;4974993;28;20051;-76
2021/06/21 08:19:52;;;;;;;7.57;1.90;;;;;;;26.65;47.04;98202.44;4967713;28;20055;-77
2021/06/21 08:22:21;;;;;;;4.15;0.80;;;;;;;26.09;47.24;98217.59;4954836;28;20102;-77
2021/06/21 08:24:50;;;;;;;5.18;1.27;;;;;;;26.40;46.11;98217.75;4974285;28;20119;-77
2021/06/21 08:27:18;;;;;;;7.72;1.00;;;;;;;26.21;46.00;98214.28;4974655;28;20046;-77
2021/06/21 08:29:46;;;;;;;6.95;0.88;;;;;;;25.92;45.64;98220.97;4975025;28;20062;-77
2021/06/21 08:32:13;;;;;;;3.00;0.85;;;;;;;25.94;45.57;98235.41;4974987;28;20499;-77
2021/06/21 08:34:40;;;;;;;2.47;0.88;;;;;;;26.48;45.11;98230.13;4974544;28;20050;-78
2021/06/21 08:37:08;;;;;;;5.40;1.00;;;;;;;26.62;45.64;98224.53;4963397;28;20062;-77
2021/06/21 08:39:36;;;;;;;4.15;1.42;;;;;;;25.66;45.82;98227.03;4961107;28;20121;-78
2021/06/21 08:42:05;;;;;;;4.95;1.10;;;;;;;26.14;46.15;98229.44;4974937;28;20503;-78
2021/06/21 08:44:34;;;;;;;3.53;1.20;;;;;;;26.27;46.85;98222.22;4974650;28;20055;-78
2021/06/21 08:47:03;;;;;;;2.67;0.83;;;;;;;26.58;45.11;98221.53;4974933;28;20062;-78
2021/06/21 08:49:34;;;;;;;7.05;0.98;;;;;;;27.03;45.13;98218.81;4974561;28;20221;-78
2021/06/21 08:52:02;;;;;;;3.33;1.02;;;;;;;26.87;46.00;98231.50;4955637;28;20063;-78
2021/06/21 08:54:28;;;;;;;3.10;0.90;;;;;;;27.29;41.76;98212.59;4962018;28;20113;-78
2021/06/21 08:56:57;;;;;;;6.28;1.13;;;;;;;27.46;43.22;98233.41;4974380;28;20059;-78
2021/06/21 08:59:25;;;;;;;4.15;1.13;;;;;;;27.55;41.68;98234.28;4974709;28;20054;-78
2021/06/21 09:01:52;;;;;;;5.30;1.40;;;;;;;26.97;42.36;98241.59;4974287;28;20055;-78
2021/06/21 09:04:22;;;;;;;3.03;0.98;;;;;;;27.31;42.96;98229.88;4973102;28;20229;-78
2021/06/21 09:06:49;;;;;;;3.63;1.13;;;;;;;26.94;44.30;98239.44;4974305;28;20143;-78
2021/06/21 09:09:16;;;;;;;2.63;1.00;;;;;;;27.21;44.73;98235.69;4974453;28;20054;-79
2021/06/21 09:11:54;;;;;;;1.35;0.70;;;;;;;27.17;42.64;98229.94;4974037;28;20637;-78
2021/06/21 09:14:31;;;;;;;5.95;1.58;;;;;;;27.33;44.34;98244.34;4973595;28;20058;-77
2021/06/21 09:16:59;;;;;;;2.88;1.00;;;;;;;27.62;44.02;98237.44;4974122;28;20061;-79
2021/06/21 09:19:28;;;;;;;4.82;0.90;;;;;;;27.17;43.87;98238.31;4974294;28;20487;-78
2021/06/21 09:21:55;;;;;;;5.85;1.30;;;;;;;27.19;42.34;98230.44;4974069;28;20125;-78
2021/06/21 09:24:24;;;;;;;2.80;1.52;;;;;;;27.36;42.57;98240.09;4973967;28;20051;-78
2021/06/21 09:26:53;;;;;;;5.70;1.00;;;;;;;27.49;41.75;98228.03;4963994;28;20063;-78
2021/06/21 09:29:33;;;;;;;2.43;1.00;;;;;;;27.25;44.32;98225.56;4971731;28;20080;-78
2021/06/21 09:31:59;;;;;;;;;;;;;;;27.20;42.38;98225.69;4974665;28;20134;-78
2021/06/21 09:34:28;;;;;;;4.03;1.02;;;;;;;27.57;43.34;98217.25;4972234;28;19921;-78
2021/06/21 09:37:07;;;;;;;4.93;1.00;;;;;;;27.36;43.14;98212.19;4973760;28;20419;-79
2021/06/21 09:39:39;;;;;;;4.82;1.02;;;;;;;27.29;41.77;98220.97;4973755;28;20182;-78
2021/06/21 09:42:11;;;;;;;3.10;1.25;;;;;;;27.24;41.77;98215.53;4972534;28;20051;-79
2021/06/21 09:44:40;;;;;;;5.55;1.00;;;;;;;27.28;43.16;98210.97;4962460;28;20047;-79
2021/06/21 09:47:28;;;;;;;2.95;1.02;;;;;;;27.73;42.12;98218.44;4973496;28;20051;-78
2021/06/21 09:50:13;;;;;;;8.02;1.25;;;;;;;27.35;42.34;98218.91;4973539;28;20515;-79
2021/06/21 09:52:43;;;;;;;6.60;1.30;;;;;;;27.24;42.09;98232.28;4963158;28;20055;-78
2021/06/21 09:55:16;;;;;;;4.85;1.27;;;;;;;27.35;42.91;98238.44;4973042;28;20442;-79
2021/06/21 09:57:43;;;;;;;9.48;1.50;;;;;;;27.94;42.59;98229.88;4971299;28;20054;-79
2021/06/21 10:00:12;;;;;;;5.00;1.10;;;;;;;28.10;43.37;98237.88;4969123;28;20059;-79
2021/06/21 10:02:40;;;;;;;6.30;0.93;;;;;;;28.19;41.09;98231.16;4972300;28;20117;-79
2021/06/21 10:05:21;;;;;;;6.10;1.10;;;;;;;27.93;41.26;98233.84;4973123;28;20086;-78
2021/06/21 10:07:48;;;;;;;7.15;1.30;;;;;;;28.05;43.60;98230.47;4973002;28;20050;-79
2021/06/21 10:10:19;;;;;;;5.60;1.55;;;;;;;28.37;42.10;98232.00;4973258;28;20187;-79
2021/06/21 10:12:46;;;;;;;2.22;1.00;;;;;;;28.20;40.44;98229.19;4973234;28;20452;-79
2021/06/21 10:15:14;;;;;;;2.67;0.90;;;;;;;28.16;38.73;98230.97;4972596;28;20491;-79
2021/06/21 10:17:41;;;;;;;7.45;1.38;;;;;;;27.06;41.39;98234.13;4972198;28;20058;-79
2021/06/21 10:20:09;;;;;;;6.43;1.48;;;;;;;27.33;41.75;98227.59;4973205;28;20562;-79
2021/06/21 10:22:39;;;;;;;9.05;1.92;;;;;;;27.35;43.09;98228.09;4973055;28;20078;-79
2021/06/21 10:25:07;;;;;;;8.90;0.98;;;;;;;26.92;44.40;98230.53;4972955;28;20055;-79
2021/06/21 10:27:39;;;;;;;2.33;1.00;;;;;;;26.91;44.50;98232.53;4972628;28;20550;-78
2021/06/21 10:30:10;;;;;;;5.43;0.93;;;;;;;27.72;41.85;98216.81;4973527;28;20475;-79
2021/06/21 10:32:37;;;;;;;2.33;0.90;;;;;;;27.93;40.80;98213.44;4972504;28;20495;-79
2021/06/21 10:35:05;;;;;;;3.55;1.02;;;;;;;28.12;40.65;98225.19;4957219;28;20455;-79
2021/06/21 10:37:32;;;;;;;3.33;1.42;;;;;;;28.07;40.58;98231.75;4961981;28;20047;-79
2021/06/21 10:40:05;;;;;;;2.30;0.88;;;;;;;28.63;38.05;98224.84;4972893;28;20059;-79
2021/06/21 10:42:35;;;;;;;5.70;1.20;;;;;;;28.46;41.71;98228.44;4972901;28;20105;-80
2021/06/21 10:45:02;;;;;;;;;;;;;;;28.86;39.76;98233.91;4972830;28;20055;-78
2021/06/21 10:47:35;;;;;;;3.38;1.10;;;;;;;28.96;38.76;98223.19;4972747;28;20381;-80
2021/06/21 10:50:08;;;;;;;6.82;1.58;;;;;;;27.92;40.53;98234.97;4972839;28;20062;-80
2021/06/21 10:52:44;;;;;;;4.95;1.35;;;;;;;28.88;39.87;98203.66;4972914;28;20094;-80
2021/06/21 10:55:50;;;;;;;5.45;0.93;;;;;;;29.45;38.26;98211.00;4972870;28;20114;-79
2021/06/21 10:58:46;;;;;;;6.95;1.23;;;;;;;29.20;39.09;98223.88;4972761;28;20058;-79
2021/06/21 11:01:18;;;;;;;7.45;1.50;;;;;;;29.86;38.61;98222.78;4973142;28;20058;-79
2021/06/21 11:03:45;;;;;;;3.58;1.20;;;;;;;29.38;39.12;98230.28;4972703;28;20097;-79
2021/06/21 11:06:37;;;;;;;4.55;1.00;;;;;;;28.52;40.26;98236.31;4972521;28;20047;-79
2021/06/21 11:09:09;;;;;;;5.90;1.23;;;;;;;28.53;39.41;98234.34;4960087;28;20050;-79
2021/06/21 11:11:55;;;;;;;2.10;1.30;;;;;;;28.40;39.94;98234.16;4973203;28;20428;-79
2021/06/21 11:14:27;;;;;;;5.05;1.70;;;;;;;27.78;41.63;98225.88;4971730;28;20058;-78
2021/06/21 11:17:19;;;;;;;2.70;1.13;;;;;;;28.20;40.79;98234.78;4972708;28;20105;-80
2021/06/21 11:19:46;;;;;;;5.43;1.65;;;;;;;28.76;39.06;98232.28;4972215;28;20499;-79
2021/06/21 11:22:14;;;;;;;2.38;1.00;;;;;;;29.03;38.19;98230.31;4971868;28;20042;-80
2021/06/21 11:24:50;;;;;;;5.88;1.30;;;;;;;28.85;39.07;98233.09;4956185;28;20051;-80
2021/06/21 11:27:19;;;;;;;3.03;1.25;;;;;;;28.89;39.37;98236.88;4954068;28;20055;-80
2021/06/21 11:29:49;;;;;;;1.75;0.95;;;;;;;28.34;40.46;98232.66;4972467;28;20042;-79
2021/06/21 11:32:17;;;;;;;4.80;1.42;;;;;;;27.86;40.12;98236.25;4972477;28;20043;-79
2021/06/21 11:34:46;;;;;;;4.95;1.10;;;;;;;27.98;42.60;98230.91;4971928;28;20051;-79
2021/06/21 11:37:50;;;;;;;4.38;1.25;;;;;;;27.86;41.66;98231.47;4972525;28;20142;-79
2021/06/21 11:40:31;;;;;;;2.58;1.23;;;;;;;27.92;41.56;98243.34;4968183;28;20051;-79
2021/06/21 11:43:18;;;;;;;5.57;1.10;;;;;;;27.71;41.17;98243.09;4953185;28;20055;-79
2021/06/21 11:45:58;;;;;;;2.90;1.15;;;;;;;27.71;40.54;98229.94;4970391;28;20057;-79
2021/06/21 11:48:32;;;;;;;4.15;1.02;;;;;;;27.55;41.37;98235.13;4972318;28;20287;-80
2021/06/21 11:51:00;;;;;;;6.60;1.40;;;;;;;27.57;42.35;98220.84;4971938;28;20499;-79
2021/06/21 11:53:28;;;;;;;1.92;0.85;;;;;;;27.78;42.13;98234.28;4970835;28;20055;-79
2021/06/21 11:55:56;;;;;;;2.92;1.02;;;;;;;28.50;39.90;98235.84;4971022;28;20134;-79